createdAt,value
2023-05-15T00:02:26.776Z,0.60
2023-05-15T00:07:26.884Z,0.60
2023-05-15T00:12:26.931Z,0.60
2023-05-15T00:17:26.028Z,1.10
2023-05-15T00:22:28.091Z,0.80
2023-05-15T00:27:27.150Z,0.40
2023-05-15T00:32:28.430Z,0.90
2023-05-15T00:37:30.498Z,2.00
2023-05-15T00:42:29.580Z,2.00
2023-05-15T00:47:30.648Z,1.70
2023-05-15T00:52:31.660Z,0.70
2023-05-15T00:57:33.713Z,0.40
2023-05-15T01:02:33.855Z,0.60
2023-05-15T01:07:33.946Z,0.70
2023-05-15T01:12:33.968Z,0.60
2023-05-15T01:17:34.020Z,1.40
2023-05-15T01:22:33.044Z,1.00
2023-05-15T01:27:34.103Z,0.70
2023-05-15T01:32:36.189Z,1.20
2023-05-15T01:37:35.169Z,1.50
2023-05-15T01:42:37.260Z,1.20
2023-05-15T01:47:36.388Z,0.70
2023-05-15T01:52:38.577Z,0.90
2023-05-15T01:57:39.673Z,1.50
2023-05-15T02:02:38.836Z,0.60
2023-05-15T02:07:39.865Z,1.70
2023-05-15T02:12:40.998Z,0.80
2023-05-15T02:17:42.103Z,0.50
2023-05-15T02:22:44.151Z,0.70
2023-05-15T02:27:43.208Z,0.30
2023-05-15T02:32:45.303Z,1.10
2023-05-15T02:37:45.305Z,0.90
2023-05-15T02:42:45.402Z,0.60
2023-05-15T02:47:44.454Z,0.40
2023-05-15T02:52:45.525Z,1.30
2023-05-15T02:57:46.558Z,2.00
2023-05-15T03:02:48.722Z,0.50
2023-05-15T03:07:47.756Z,2.70
2023-05-15T03:12:49.789Z,0.40
2023-05-15T03:17:48.865Z,0.40
2023-05-15T03:22:49.901Z,1.00
2023-05-15T03:27:51.939Z,4.50
2023-05-15T03:32:50.999Z,3.30
2023-05-15T03:37:52.009Z,1.40
2023-05-15T03:42:53.034Z,1.00
2023-05-15T03:47:55.130Z,4.30
2023-05-15T03:52:55.113Z,1.50
2023-05-15T03:57:54.163Z,1.70
2023-05-15T04:02:55.323Z,2.00
2023-05-15T04:07:57.328Z,1.10
2023-05-15T04:12:57.479Z,1.30
2023-05-15T04:17:57.563Z,2.40
2023-05-15T04:22:57.544Z,2.40
2023-05-15T04:27:58.576Z,1.10
2023-05-15T04:32:58.683Z,1.10
2023-05-15T04:37:57.694Z,3.20
2023-05-15T04:42:58.772Z,3.20
2023-05-15T04:48:00.887Z,1.20
2023-05-15T04:52:59.899Z,1.70
2023-05-15T04:58:01.924Z,1.90
2023-05-15T05:03:01.977Z,1.30
2023-05-15T05:08:01.994Z,1.30
2023-05-15T05:13:03.027Z,1.10
2023-05-15T05:18:03.132Z,1.60
2023-05-15T05:23:02.124Z,1.70
2023-05-15T05:28:04.195Z,1.20
2023-05-15T05:33:04.289Z,0.80
2023-05-15T05:38:03.284Z,1.30
2023-05-15T05:43:04.325Z,1.80
2023-05-15T05:48:07.379Z,3.60
2023-05-15T05:53:06.388Z,1.40
2023-05-15T05:58:14.774Z,2.70
2023-05-15T06:03:08.378Z,1.80
2023-05-15T06:08:07.383Z,1.60
2023-05-15T06:13:08.427Z,1.20
2023-05-15T06:18:09.536Z,1.30
2023-05-15T06:23:10.595Z,1.30
2023-05-15T06:28:12.650Z,1.00
2023-05-15T06:33:11.803Z,0.80
2023-05-15T06:38:12.847Z,1.20
2023-05-15T06:43:14.897Z,2.20
2023-05-15T06:48:13.949Z,1.60
2023-05-15T06:53:14.961Z,1.30
2023-05-15T06:58:17.008Z,1.40
2023-05-15T07:03:18.029Z,1.10
2023-05-15T07:08:17.064Z,2.00
2023-05-15T07:13:18.110Z,1.60
2023-05-15T07:18:20.237Z,1.80
2023-05-15T07:23:19.218Z,0.70
2023-05-15T07:28:20.255Z,0.70
2023-05-15T07:33:21.305Z,0.80
2023-05-15T07:38:22.397Z,1.10
2023-05-15T07:43:25.714Z,1.70
2023-05-15T07:48:24.746Z,1.70
2023-05-15T07:53:25.797Z,1.80
2023-05-15T07:58:27.847Z,1.90
2023-05-15T08:03:28.941Z,2.00
2023-05-15T08:08:28.930Z,1.20
2023-05-15T08:13:27.975Z,1.80
2023-05-15T08:18:30.008Z,1.30
2023-05-15T08:23:30.057Z,2.10
2023-05-15T08:28:29.169Z,1.80
2023-05-15T08:33:31.199Z,1.40
2023-05-15T08:38:30.245Z,1.40
2023-05-15T08:43:31.297Z,1.10
2023-05-15T08:48:32.542Z,1.50
2023-05-15T08:53:33.625Z,1.10
2023-05-15T08:58:35.698Z,2.00
2023-05-15T09:03:34.868Z,2.70
2023-05-15T09:08:35.946Z,1.80
2023-05-15T09:13:37.183Z,1.70
2023-05-15T09:18:38.365Z,2.80
2023-05-15T09:23:39.397Z,2.40
2023-05-15T09:28:40.423Z,3.90
2023-05-15T09:33:42.540Z,2.00
2023-05-15T09:38:41.779Z,1.50
2023-05-15T09:43:44.786Z,2.60
2023-05-15T09:48:44.027Z,2.30
2023-05-15T09:53:45.021Z,3.10
2023-05-15T09:58:46.053Z,3.30
2023-05-15T10:03:48.092Z,3.50
2023-05-15T10:08:47.106Z,1.80
2023-05-15T10:13:48.156Z,2.10
2023-05-15T10:18:50.226Z,1.40
2023-05-15T10:23:49.397Z,2.40
2023-05-15T10:28:50.436Z,0.80
2023-05-15T10:33:51.500Z,1.00
2023-05-15T10:38:54.548Z,1.30
2023-05-15T10:43:54.633Z,0.70
2023-05-15T10:48:53.719Z,0.80
2023-05-15T10:53:55.733Z,0.70
2023-05-15T10:58:55.783Z,0.60
2023-05-15T11:03:55.364Z,1.10
2023-05-15T11:08:54.467Z,1.50
2023-05-15T11:13:55.638Z,1.40
2023-05-15T11:18:56.728Z,1.00
2023-05-15T11:23:58.714Z,1.90
2023-05-15T11:28:57.945Z,1.80
2023-05-15T11:33:59.162Z,1.20
2023-05-15T11:39:01.228Z,1.10
2023-05-15T11:44:00.263Z,1.60
2023-05-15T11:49:01.363Z,1.20
2023-05-15T11:54:03.485Z,1.00
2023-05-15T11:59:02.551Z,1.40
2023-05-15T12:04:03.727Z,0.70
2023-05-15T12:09:04.902Z,1.20
2023-05-15T12:14:06.042Z,1.40
2023-05-15T12:19:07.147Z,1.00
2023-05-15T12:24:08.519Z,1.20
2023-05-15T12:29:09.582Z,1.50
2023-05-15T12:34:10.661Z,0.60
2023-05-15T12:39:11.723Z,0.60
2023-05-15T12:44:12.763Z,0.90
2023-05-15T12:49:14.843Z,1.00
2023-05-15T12:54:14.913Z,0.60
2023-05-15T12:59:13.947Z,1.00
2023-05-15T13:04:15.989Z,1.00
2023-05-15T13:09:16.012Z,0.70
2023-05-15T13:14:15.053Z,1.30
2023-05-15T13:19:16.305Z,1.10
2023-05-15T13:24:17.483Z,1.50
2023-05-15T13:29:18.640Z,0.80
2023-05-15T13:34:19.810Z,2.60
2023-05-15T13:39:21.837Z,1.20
2023-05-15T13:44:21.923Z,0.80
2023-05-15T13:49:20.936Z,1.30
2023-05-15T13:54:21.986Z,1.20
2023-05-15T13:59:23.172Z,0.70
2023-05-15T14:04:24.418Z,0.60
2023-05-15T14:09:25.531Z,1.20
2023-05-15T14:14:27.564Z,0.80
2023-05-15T14:19:26.809Z,1.80
2023-05-15T14:24:27.937Z,1.20
2023-05-15T14:29:29.104Z,1.20
2023-05-15T14:34:30.229Z,1.30
2023-05-15T14:39:31.257Z,1.10
2023-05-15T14:44:32.463Z,1.00
2023-05-15T14:49:33.576Z,1.00
2023-05-15T14:54:34.770Z,1.10
2023-05-15T14:59:35.792Z,1.50
2023-05-15T15:04:37.806Z,1.10
2023-05-15T15:09:36.866Z,1.60
2023-05-15T15:14:37.923Z,1.10
2023-05-15T15:19:39.951Z,1.00
2023-05-15T15:24:38.976Z,1.70
2023-05-15T15:29:40.027Z,2.20
2023-05-15T15:34:41.055Z,1.80
2023-05-15T15:39:42.094Z,1.20
2023-05-15T15:44:43.243Z,0.60
2023-05-15T15:49:44.289Z,1.10
2023-05-15T15:54:45.336Z,2.60
2023-05-15T15:59:47.463Z,5.20
2023-05-15T16:04:47.609Z,1.10
2023-05-15T16:09:51.468Z,0.90
2023-05-15T16:14:47.627Z,0.80
2023-05-15T16:19:46.827Z,0.80
2023-05-15T16:24:48.152Z,1.40
2023-05-15T16:29:49.547Z,1.60
2023-05-15T16:34:51.188Z,1.00
2023-05-15T16:39:50.682Z,1.90
2023-05-15T16:44:50.340Z,1.40
2023-05-15T16:49:50.821Z,0.90
2023-05-15T16:54:51.284Z,1.00
2023-05-15T16:59:51.766Z,1.50
2023-05-15T17:04:51.324Z,1.30
2023-05-15T17:09:50.827Z,1.80
2023-05-15T17:14:50.313Z,1.10
2023-05-15T17:19:49.858Z,2.00
2023-05-15T17:24:51.759Z,1.50
2023-05-15T17:29:49.550Z,1.20
2023-05-15T17:34:50.063Z,0.90
2023-05-15T17:39:50.565Z,1.20
2023-05-15T17:44:50.092Z,1.10
2023-05-15T17:49:49.642Z,3.60
2023-05-15T17:54:50.171Z,2.40
2023-05-15T17:59:50.799Z,1.80
2023-05-15T18:04:50.363Z,3.50
2023-05-15T18:09:50.940Z,1.70
2023-05-15T18:14:51.514Z,2.50
2023-05-15T18:19:51.085Z,1.30
2023-05-15T18:24:50.685Z,2.10
2023-05-15T18:29:51.245Z,2.10
2023-05-15T18:34:50.810Z,4.50
2023-05-15T18:39:50.483Z,2.80
2023-05-15T18:44:51.063Z,3.70
2023-05-15T18:49:50.653Z,1.90
2023-05-15T18:54:50.447Z,3.00
2023-05-15T18:59:50.160Z,1.80
2023-05-15T19:04:49.716Z,3.40
2023-05-15T19:09:49.445Z,2.80
2023-05-15T19:14:50.017Z,2.30
2023-05-15T19:19:49.640Z,2.00
2023-05-15T19:24:49.233Z,1.40
2023-05-15T19:29:48.925Z,2.80
2023-05-15T19:34:49.463Z,1.60
2023-05-15T19:39:49.037Z,2.70
2023-05-15T19:44:48.630Z,3.70
2023-05-15T19:49:48.208Z,2.80
2023-05-15T19:54:47.715Z,5.40
2023-05-15T19:59:48.267Z,3.60
2023-05-15T20:04:48.024Z,2.80
2023-05-15T20:09:48.658Z,2.70
2023-05-15T20:14:49.355Z,6.10
2023-05-15T20:19:49.982Z,2.40
2023-05-15T20:24:50.537Z,2.50
2023-05-15T20:29:50.154Z,4.70
2023-05-15T20:34:49.790Z,3.20
2023-05-15T20:39:49.406Z,3.50
2023-05-15T20:44:52.933Z,5.00
2023-05-15T20:49:48.397Z,1.90
2023-05-15T20:54:47.845Z,2.10
2023-05-15T20:59:49.272Z,2.60
2023-05-15T21:04:50.441Z,3.00
2023-05-15T21:09:52.485Z,2.40
2023-05-15T21:14:51.533Z,2.80
2023-05-15T21:19:53.609Z,3.40
2023-05-15T21:24:53.669Z,5.60
2023-05-15T21:29:52.705Z,2.60
2023-05-15T21:34:53.889Z,3.60
2023-05-15T21:39:55.919Z,3.40
2023-05-15T21:44:55.003Z,3.50
2023-05-15T21:49:56.026Z,2.70
2023-05-15T21:54:58.071Z,4.10
2023-05-15T21:59:57.115Z,3.00
2023-05-15T22:05:02.055Z,2.90
2023-05-15T22:09:59.289Z,3.30
2023-05-15T22:15:01.372Z,2.80
2023-05-15T22:20:00.412Z,3.00
2023-05-15T22:25:02.483Z,3.20
2023-05-15T22:30:02.602Z,2.80
2023-05-15T22:35:01.699Z,3.20
2023-05-15T22:40:02.861Z,3.90
2023-05-15T22:45:03.950Z,3.60
2023-05-15T22:50:05.143Z,3.00
2023-05-15T22:55:06.156Z,3.40
2023-05-15T23:00:08.166Z,3.70
2023-05-15T23:05:07.655Z,3.70
2023-05-15T23:10:08.739Z,4.00
2023-05-15T23:15:09.761Z,3.60
2023-05-15T23:20:10.795Z,3.40
2023-05-15T23:25:12.003Z,3.60
2023-05-15T23:30:13.140Z,4.80
2023-05-15T23:35:14.193Z,4.20
2023-05-15T23:40:15.329Z,3.90
2023-05-15T23:45:16.347Z,4.00
2023-05-15T23:50:17.390Z,5.10
2023-05-15T23:55:18.531Z,4.20
